Terminal Aerodrome Forecast
Issued by NWS

Home | Current Version | Previous Version | Text Only | Print | Product List | Glossary On
Versions: 1 2 3 4 5 6 7 8 9 10 11 12 13 14 15 16 17 18
000
FTUS44 KSJT 201700
TAFBBD
TAF
KBBD 201725Z 2018/2118 17012G20KT P6SM SCT060
     FM210100 15008KT P6SM SCT250
     FM211300 15005KT P6SM BKN015=

USA.gov is the U.S. government's official web portal to all federal, state and local government web resources and services.